createdAt,value
2019-03-09T00:00:47.051Z,6.16
2019-03-09T00:03:12.906Z,6.10
2019-03-09T00:05:38.894Z,5.97
2019-03-09T00:08:04.834Z,5.90
2019-03-09T00:10:30.783Z,5.84
2019-03-09T00:12:56.702Z,5.78
2019-03-09T00:15:23.263Z,5.72
2019-03-09T00:17:49.181Z,5.64
2019-03-09T00:20:15.126Z,5.62
2019-03-09T00:22:42.932Z,5.58
2019-03-09T00:25:10.794Z,5.52
2019-03-09T00:27:38.636Z,5.48
2019-03-09T00:32:59.168Z,5.39
2019-03-09T00:35:25.100Z,5.32
2019-03-09T00:37:51.074Z,5.27
2019-03-09T00:40:17.205Z,5.25
2019-03-09T00:42:43.158Z,5.20
2019-03-09T00:45:09.165Z,5.18
2019-03-09T00:47:35.095Z,5.21
2019-03-09T00:50:01.005Z,5.19
2019-03-09T00:52:26.966Z,5.15
2019-03-09T00:54:52.994Z,5.11
2019-03-09T00:57:19.234Z,5.09
2019-03-09T00:59:45.167Z,5.06
2019-03-09T01:02:11.098Z,5.02
2019-03-09T01:04:37.018Z,4.91
2019-03-09T01:07:03.050Z,4.87
2019-03-09T01:09:29.003Z,4.83
2019-03-09T01:11:55.021Z,4.79
2019-03-09T01:14:20.949Z,4.77
2019-03-09T01:16:46.997Z,4.74
2019-03-09T01:19:12.965Z,4.70
2019-03-09T01:21:38.883Z,4.67
2019-03-09T01:24:04.816Z,4.66
2019-03-09T01:26:30.729Z,4.65
2019-03-09T01:28:56.662Z,4.61
2019-03-09T01:31:22.571Z,4.58
2019-03-09T01:33:48.500Z,4.53
2019-03-09T01:36:14.451Z,4.35
2019-03-09T01:38:40.380Z,4.33
2019-03-09T01:41:06.312Z,4.30
2019-03-09T01:43:32.350Z,4.27
2019-03-09T01:45:58.291Z,4.25
2019-03-09T01:48:24.210Z,4.26
2019-03-09T01:50:50.219Z,4.23
2019-03-09T01:53:16.151Z,4.21
2019-03-09T01:55:42.060Z,4.17
2019-03-09T01:58:08.090Z,4.18
2019-03-09T02:00:34.031Z,4.18
2019-03-09T02:02:59.963Z,4.13
2019-03-09T02:05:27.273Z,4.07
2019-03-09T02:07:53.213Z,4.03
2019-03-09T02:10:23.157Z,3.99
2019-03-09T02:12:49.099Z,3.92
2019-03-09T02:15:15.242Z,3.88
2019-03-09T02:17:41.172Z,3.84
2019-03-09T02:20:33.797Z,3.81
2019-03-09T02:22:59.718Z,3.77
2019-03-09T02:25:25.646Z,3.70
2019-03-09T02:27:51.581Z,3.68
2019-03-09T02:30:17.993Z,3.62
2019-03-09T02:32:43.979Z,3.57
2019-03-09T02:35:11.627Z,3.53
2019-03-09T02:37:37.549Z,3.51
2019-03-09T02:43:05.540Z,3.45
2019-03-09T02:45:32.267Z,3.38
2019-03-09T02:47:58.256Z,3.29
2019-03-09T02:50:24.241Z,3.23
2019-03-09T02:52:50.187Z,3.20
2019-03-09T02:55:16.121Z,3.12
2019-03-09T02:57:42.080Z,3.13
2019-03-09T03:00:11.845Z,3.11
2019-03-09T03:02:41.020Z,3.07
2019-03-09T03:05:06.902Z,3.00
2019-03-09T03:07:32.842Z,2.98
2019-03-09T03:09:58.776Z,2.96
2019-03-09T03:12:24.734Z,2.91
2019-03-09T03:14:50.659Z,2.88
2019-03-09T03:17:16.580Z,2.85
2019-03-09T03:19:42.519Z,2.83
2019-03-09T03:22:08.540Z,2.79
2019-03-09T03:24:35.675Z,2.73
2019-03-09T03:27:01.600Z,2.70
2019-03-09T03:29:27.537Z,2.66
2019-03-09T03:31:53.467Z,2.63
2019-03-09T03:34:19.462Z,2.60
2019-03-09T03:36:45.421Z,2.59
2019-03-09T03:39:11.337Z,2.57
2019-03-09T03:41:37.509Z,2.56
2019-03-09T03:44:04.764Z,2.52
2019-03-09T03:46:30.813Z,2.47
2019-03-09T03:48:56.741Z,2.43
2019-03-09T03:51:22.671Z,2.37
2019-03-09T03:53:48.579Z,2.36
2019-03-09T03:56:14.502Z,2.36
2019-03-09T03:58:40.420Z,2.34
2019-03-09T04:01:06.364Z,2.32
2019-03-09T04:03:32.287Z,2.25
2019-03-09T04:05:58.188Z,2.07
2019-03-09T04:08:24.136Z,2.10
2019-03-09T04:10:50.151Z,2.16
2019-03-09T04:13:16.066Z,2.14
2019-03-09T04:15:42.310Z,2.09
2019-03-09T04:18:08.224Z,2.08
2019-03-09T04:20:34.154Z,2.08
2019-03-09T04:23:00.081Z,2.06
2019-03-09T04:25:26.108Z,2.06
2019-03-09T04:27:52.029Z,2.04
2019-03-09T04:30:18.061Z,1.99
2019-03-09T04:32:43.951Z,1.95
2019-03-09T04:35:09.866Z,1.93
2019-03-09T04:37:35.927Z,1.93
2019-03-09T04:40:04.546Z,1.90
2019-03-09T04:42:30.507Z,1.90
2019-03-09T04:44:56.457Z,1.87
2019-03-09T04:47:22.416Z,1.84
2019-03-09T04:49:48.328Z,1.82
2019-03-09T04:52:14.274Z,1.77
2019-03-09T04:54:40.325Z,1.75
2019-03-09T04:57:06.263Z,1.72
2019-03-09T04:59:32.227Z,1.70
2019-03-09T05:01:58.247Z,1.68
2019-03-09T05:04:27.974Z,1.68
2019-03-09T05:06:53.981Z,1.68
2019-03-09T05:09:23.727Z,1.67
2019-03-09T05:11:49.663Z,1.65
2019-03-09T05:14:15.572Z,1.62
2019-03-09T05:16:41.529Z,1.53
2019-03-09T05:19:07.470Z,1.53
2019-03-09T05:21:33.443Z,1.53
2019-03-09T05:23:59.358Z,1.56
2019-03-09T05:26:25.317Z,1.56
2019-03-09T05:28:51.248Z,1.52
2019-03-09T05:31:17.173Z,1.51
2019-03-09T05:33:43.119Z,1.48
2019-03-09T05:36:09.065Z,1.47
2019-03-09T05:38:35.090Z,1.47
2019-03-09T05:41:04.624Z,1.47
2019-03-09T05:43:30.608Z,1.44
2019-03-09T05:45:56.626Z,1.41
2019-03-09T05:48:22.544Z,1.40
2019-03-09T05:50:48.481Z,1.43
2019-03-09T05:53:16.698Z,1.42
2019-03-09T05:55:42.741Z,1.41
2019-03-09T05:58:08.805Z,1.43
2019-03-09T06:00:35.622Z,1.42
2019-03-09T06:03:01.553Z,1.42
2019-03-09T06:05:55.535Z,1.43
2019-03-09T06:08:21.448Z,1.46
2019-03-09T06:10:47.375Z,1.43
2019-03-09T06:13:13.299Z,1.44
2019-03-09T06:15:39.235Z,1.44
2019-03-09T06:18:06.428Z,1.45
2019-03-09T06:20:32.635Z,1.47
2019-03-09T06:22:58.548Z,1.47
2019-03-09T06:25:24.503Z,1.39
2019-03-09T06:27:50.419Z,1.38
2019-03-09T06:30:16.495Z,1.40
2019-03-09T06:32:46.269Z,1.44
2019-03-09T06:35:40.055Z,1.46
2019-03-09T06:38:30.576Z,1.50
2019-03-09T06:41:02.968Z,1.56
2019-03-09T06:43:24.424Z,1.58
2019-03-09T06:45:50.346Z,1.64
2019-03-09T06:48:16.284Z,1.57
2019-03-09T06:50:42.317Z,1.70
2019-03-09T06:53:08.245Z,1.76
2019-03-09T06:55:34.172Z,1.80
2019-03-09T06:58:00.204Z,1.85
2019-03-09T07:00:31.292Z,1.90
2019-03-09T07:02:57.244Z,1.93
2019-03-09T07:05:23.183Z,1.95
2019-03-09T07:07:49.096Z,1.98
2019-03-09T07:10:15.053Z,2.01
2019-03-09T07:12:41.081Z,2.01
2019-03-09T07:15:41.062Z,2.09
2019-03-09T07:18:15.044Z,2.14
2019-03-09T07:20:41.077Z,2.22
2019-03-09T07:23:07.019Z,2.28
2019-03-09T07:25:32.953Z,2.33
2019-03-09T07:28:02.701Z,2.41
2019-03-09T07:30:28.727Z,2.48
2019-03-09T07:32:54.665Z,2.53
2019-03-09T07:35:20.685Z,2.58
2019-03-09T07:37:51.817Z,2.65
2019-03-09T07:40:19.898Z,2.71
2019-03-09T07:42:45.956Z,2.76
2019-03-09T07:45:12.321Z,2.81
2019-03-09T07:47:38.263Z,2.88
2019-03-09T07:50:10.595Z,2.94
2019-03-09T07:52:39.867Z,2.98
2019-03-09T07:55:07.375Z,3.05
2019-03-09T07:57:33.555Z,3.12
2019-03-09T07:59:59.538Z,3.19
2019-03-09T08:02:25.764Z,3.26
2019-03-09T08:04:51.786Z,3.34
2019-03-09T08:07:17.748Z,3.40
2019-03-09T08:09:43.773Z,3.46
2019-03-09T08:12:09.816Z,3.52
2019-03-09T08:14:38.055Z,3.57
2019-03-09T08:17:04.027Z,3.62
2019-03-09T08:19:29.943Z,3.68
2019-03-09T08:21:55.876Z,3.74
2019-03-09T08:24:21.801Z,3.81
2019-03-09T08:26:48.400Z,3.88
2019-03-09T08:29:14.462Z,4.00
2019-03-09T08:31:40.781Z,4.14
2019-03-09T08:34:07.102Z,4.24
2019-03-09T08:36:34.969Z,4.29
2019-03-09T08:39:01.127Z,4.37
2019-03-09T08:41:27.062Z,4.45
2019-03-09T08:43:52.970Z,4.48
2019-03-09T08:46:18.957Z,4.55
2019-03-09T08:48:44.879Z,4.62
2019-03-09T08:51:10.823Z,4.72
2019-03-09T08:53:36.765Z,4.80
2019-03-09T08:56:03.227Z,4.92
2019-03-09T08:58:29.124Z,5.07
2019-03-09T09:00:55.070Z,5.22
2019-03-09T09:03:20.988Z,5.27
2019-03-09T09:05:46.908Z,5.32
2019-03-09T09:08:12.833Z,5.40
2019-03-09T09:10:38.747Z,5.48
2019-03-09T09:13:04.737Z,5.59
2019-03-09T09:15:30.716Z,5.85
2019-03-09T09:17:56.802Z,6.20
2019-03-09T09:20:47.227Z,6.50
2019-03-09T09:23:14.497Z,6.64
2019-03-09T09:25:40.393Z,6.85
2019-03-09T09:28:06.320Z,6.98
2019-03-09T09:30:32.237Z,7.05
2019-03-09T09:32:58.146Z,7.04
2019-03-09T09:35:24.104Z,7.07
2019-03-09T09:37:50.953Z,7.24
2019-03-09T09:40:23.005Z,7.24
2019-03-09T09:42:49.024Z,7.29
2019-03-09T09:45:15.073Z,7.44
2019-03-09T09:47:42.617Z,7.71
2019-03-09T09:50:10.511Z,7.86
2019-03-09T09:52:36.428Z,8.02
2019-03-09T09:55:03.410Z,8.05
2019-03-09T09:57:29.624Z,8.09
2019-03-09T09:59:55.571Z,8.16
2019-03-09T10:02:21.512Z,8.24
2019-03-09T10:04:47.415Z,8.30
2019-03-09T10:07:13.364Z,8.48
2019-03-09T10:09:39.288Z,8.67
2019-03-09T10:12:05.214Z,8.78
2019-03-09T10:14:31.136Z,9.04
2019-03-09T10:16:57.053Z,9.13
2019-03-09T10:19:23.029Z,9.19
2019-03-09T10:21:48.971Z,9.30
2019-03-09T10:24:14.899Z,9.44
2019-03-09T10:26:45.275Z,9.57
2019-03-09T10:29:08.756Z,9.64
2019-03-09T10:31:34.692Z,9.64
2019-03-09T10:34:00.614Z,9.70
2019-03-09T10:36:26.555Z,9.91
2019-03-09T10:38:52.678Z,10.11
2019-03-09T10:41:18.866Z,10.25
2019-03-09T10:43:47.208Z,10.31
2019-03-09T10:46:13.182Z,10.35
2019-03-09T10:48:39.321Z,10.42
2019-03-09T10:51:05.470Z,10.48
2019-03-09T10:53:31.425Z,10.56
2019-03-09T10:55:58.226Z,10.65
2019-03-09T10:58:24.446Z,10.71
2019-03-09T11:00:50.700Z,10.70
2019-03-09T11:03:19.683Z,10.67
2019-03-09T11:05:45.895Z,10.69
2019-03-09T11:08:12.134Z,10.66
2019-03-09T11:10:40.534Z,10.68
2019-03-09T11:13:06.699Z,10.66
2019-03-09T11:15:34.854Z,10.64
2019-03-09T11:18:01.144Z,10.62
2019-03-09T11:20:27.386Z,10.59
2019-03-09T11:22:53.532Z,10.54
2019-03-09T11:25:19.658Z,10.45
2019-03-09T11:27:45.932Z,10.36
2019-03-09T11:30:20.450Z,10.36
2019-03-09T11:32:51.877Z,10.33
2019-03-09T11:35:18.053Z,10.32
2019-03-09T11:37:44.213Z,10.29
2019-03-09T11:40:10.455Z,10.26
2019-03-09T11:42:36.631Z,10.26
2019-03-09T11:45:10.626Z,10.35
2019-03-09T11:47:36.149Z,10.38
2019-03-09T11:50:04.031Z,10.40
2019-03-09T11:52:30.099Z,10.41
2019-03-09T11:54:56.231Z,10.40
2019-03-09T11:57:22.499Z,10.38
2019-03-09T11:59:48.671Z,10.40
2019-03-09T12:02:14.952Z,10.42
2019-03-09T12:04:46.787Z,10.44
2019-03-09T12:07:09.130Z,10.44
2019-03-09T12:09:35.408Z,10.47
2019-03-09T12:12:02.825Z,10.47
2019-03-09T12:14:29.087Z,10.46
2019-03-09T12:16:55.294Z,10.47
2019-03-09T12:19:21.566Z,10.43
2019-03-09T12:21:47.887Z,10.39
2019-03-09T12:24:17.630Z,10.42
2019-03-09T12:26:42.331Z,10.40
2019-03-09T12:29:08.488Z,10.38
2019-03-09T12:31:35.791Z,10.33
2019-03-09T12:34:02.041Z,10.32
2019-03-09T12:36:28.108Z,10.28
2019-03-09T12:38:54.296Z,10.23
2019-03-09T12:41:20.528Z,10.24
2019-03-09T12:43:46.923Z,10.26
2019-03-09T12:46:13.138Z,10.26
2019-03-09T12:48:39.378Z,10.35
2019-03-09T12:51:05.609Z,10.39
2019-03-09T12:53:33.282Z,10.41
2019-03-09T12:55:59.333Z,10.38
2019-03-09T12:58:25.610Z,10.38
2019-03-09T13:00:51.752Z,10.33
2019-03-09T13:03:17.903Z,10.30
2019-03-09T13:05:46.559Z,10.25
2019-03-09T13:08:12.045Z,10.23
2019-03-09T13:10:38.271Z,10.25
2019-03-09T13:13:04.413Z,10.28
2019-03-09T13:15:30.575Z,10.26
2019-03-09T13:17:56.590Z,10.23
2019-03-09T13:20:25.982Z,10.05
2019-03-09T13:22:52.053Z,9.92
2019-03-09T13:25:18.328Z,9.86
2019-03-09T13:27:44.577Z,9.81
2019-03-09T13:30:19.852Z,9.71
2019-03-09T13:32:45.900Z,9.60
2019-03-09T13:35:13.565Z,9.57
2019-03-09T13:37:39.920Z,9.54
2019-03-09T13:40:07.897Z,9.47
2019-03-09T13:42:34.164Z,9.46
2019-03-09T13:45:00.369Z,9.43
2019-03-09T13:47:26.486Z,9.48
2019-03-09T13:49:53.945Z,9.49
2019-03-09T13:52:20.138Z,9.52
2019-03-09T13:54:46.367Z,9.51
2019-03-09T13:57:12.286Z,9.50
2019-03-09T13:59:38.503Z,9.42
2019-03-09T14:02:04.536Z,9.44
2019-03-09T14:04:30.722Z,9.46
2019-03-09T14:06:56.677Z,9.47
2019-03-09T14:09:22.665Z,9.48
2019-03-09T14:11:48.970Z,9.49
2019-03-09T14:14:15.011Z,9.49
2019-03-09T14:16:41.028Z,9.46
2019-03-09T14:19:07.274Z,9.45
2019-03-09T14:21:33.211Z,9.42
2019-03-09T14:23:59.320Z,9.42
2019-03-09T14:26:25.456Z,9.38
2019-03-09T14:28:51.606Z,9.34
2019-03-09T14:31:17.760Z,9.38
2019-03-09T14:33:43.935Z,9.38
2019-03-09T14:36:10.625Z,9.42
2019-03-09T14:38:36.658Z,9.50
2019-03-09T14:41:02.831Z,9.60
2019-03-09T14:43:28.976Z,9.63
2019-03-09T14:45:55.297Z,9.70
2019-03-09T14:48:21.295Z,9.75
2019-03-09T14:50:49.359Z,9.77
2019-03-09T14:53:15.280Z,9.84
2019-03-09T14:55:41.778Z,9.96
2019-03-09T14:58:07.721Z,9.95
2019-03-09T15:00:33.739Z,9.96
2019-03-09T15:02:59.998Z,9.97
2019-03-09T15:05:26.251Z,9.94
2019-03-09T15:07:54.210Z,9.93
2019-03-09T15:10:22.068Z,9.97
2019-03-09T15:12:48.195Z,10.04
2019-03-09T15:15:18.092Z,10.12
2019-03-09T15:17:44.173Z,10.12
2019-03-09T15:20:11.743Z,10.14
2019-03-09T15:22:37.889Z,10.23
2019-03-09T15:25:06.499Z,10.24
2019-03-09T15:27:34.297Z,10.17
2019-03-09T15:30:00.547Z,10.13
2019-03-09T15:32:26.474Z,10.16
2019-03-09T15:34:52.518Z,10.12
2019-03-09T15:37:18.575Z,10.04
2019-03-09T15:39:44.501Z,10.05
2019-03-09T15:42:10.609Z,10.07
2019-03-09T15:44:36.638Z,10.02
2019-03-09T15:47:02.559Z,9.99
2019-03-09T15:49:28.613Z,10.03
2019-03-09T15:51:54.546Z,10.08
2019-03-09T15:54:20.512Z,10.10
2019-03-09T15:56:46.451Z,10.09
2019-03-09T15:59:12.653Z,10.08
2019-03-09T16:01:38.571Z,10.06
2019-03-09T16:04:04.836Z,10.07
2019-03-09T16:06:30.780Z,10.06
2019-03-09T16:08:56.700Z,10.04
2019-03-09T16:11:22.756Z,10.04
2019-03-09T16:13:48.671Z,9.93
2019-03-09T16:16:14.684Z,9.93
2019-03-09T16:18:40.640Z,9.86
2019-03-09T16:21:06.618Z,9.77
2019-03-09T16:23:32.664Z,9.77
2019-03-09T16:25:58.738Z,9.75
2019-03-09T16:28:24.888Z,9.68
2019-03-09T16:30:50.870Z,9.63
2019-03-09T16:33:17.022Z,9.61
2019-03-09T16:35:43.230Z,9.55
2019-03-09T16:38:09.522Z,9.48
2019-03-09T16:40:40.401Z,9.43
2019-03-09T16:43:04.789Z,9.37
2019-03-09T16:45:30.962Z,9.34
2019-03-09T16:47:57.202Z,9.27
2019-03-09T16:50:23.333Z,9.19
2019-03-09T16:52:49.593Z,9.13
2019-03-09T16:55:15.981Z,9.12
2019-03-09T16:57:42.225Z,9.05
2019-03-09T17:00:35.862Z,9.03
2019-03-09T17:03:02.158Z,8.95
2019-03-09T17:05:28.290Z,8.79
2019-03-09T17:07:54.471Z,8.68
2019-03-09T17:10:20.577Z,8.63
2019-03-09T17:12:46.877Z,8.59
2019-03-09T17:26:26.514Z,8.37
2019-03-09T17:28:52.561Z,8.26
2019-03-09T17:31:18.614Z,8.24
2019-03-09T17:33:44.550Z,8.15
2019-03-09T17:36:10.624Z,8.14
2019-03-09T17:38:36.942Z,8.15
2019-03-09T17:41:03.379Z,8.13
2019-03-09T17:43:29.341Z,8.13
2019-03-09T17:45:55.474Z,8.09
2019-03-09T17:48:22.586Z,8.02
2019-03-09T17:50:48.757Z,7.93
2019-03-09T17:53:16.190Z,7.83
2019-03-09T17:55:42.274Z,7.75
2019-03-09T17:58:10.581Z,7.68
2019-03-09T18:00:44.574Z,7.62
2019-03-09T18:03:10.837Z,7.56
2019-03-09T18:05:37.156Z,7.50
2019-03-09T18:08:03.263Z,7.48
2019-03-09T18:10:50.077Z,7.49
2019-03-09T18:13:16.134Z,7.47
2019-03-09T18:15:42.438Z,7.43
2019-03-09T18:18:08.743Z,7.33
2019-03-09T18:20:34.959Z,7.34
2019-03-09T18:23:01.134Z,7.34
2019-03-09T18:25:27.374Z,7.32
2019-03-09T18:27:53.660Z,7.26
2019-03-09T18:30:19.605Z,7.15
2019-03-09T18:32:45.752Z,7.12
2019-03-09T18:35:11.716Z,7.11
2019-03-09T18:37:37.638Z,7.09
2019-03-09T18:40:09.368Z,7.02
2019-03-09T18:42:35.478Z,6.98
2019-03-09T18:45:01.450Z,6.94
2019-03-09T18:47:27.770Z,6.94
2019-03-09T18:49:54.136Z,6.91
2019-03-09T18:52:20.429Z,6.84
2019-03-09T18:54:46.731Z,6.76
2019-03-09T18:57:14.334Z,6.76
2019-03-09T18:59:40.626Z,6.77
2019-03-09T19:02:06.559Z,6.75
2019-03-09T19:04:32.781Z,6.72
2019-03-09T19:06:58.918Z,6.64
2019-03-09T19:09:24.977Z,6.54
2019-03-09T19:11:51.184Z,6.46
2019-03-09T19:14:17.321Z,6.39
2019-03-09T19:16:43.478Z,6.34
2019-03-09T19:19:09.759Z,6.25
2019-03-09T19:21:35.923Z,6.11
2019-03-09T19:24:02.151Z,6.04
2019-03-09T19:26:28.348Z,6.02
2019-03-09T19:28:54.512Z,5.97
2019-03-09T19:31:20.670Z,5.87
2019-03-09T19:33:46.914Z,5.86
2019-03-09T19:36:12.874Z,5.84
2019-03-09T19:38:40.039Z,5.77
2019-03-09T19:41:06.233Z,5.74
2019-03-09T19:43:32.536Z,5.71
2019-03-09T19:45:58.714Z,5.67
2019-03-09T19:48:26.039Z,5.65
2019-03-09T19:50:55.131Z,5.59
2019-03-09T19:53:21.287Z,5.52
2019-03-09T19:55:50.345Z,5.43
2019-03-09T19:58:17.515Z,5.36
2019-03-09T20:00:58.044Z,5.30
2019-03-09T20:03:23.996Z,5.26
2019-03-09T20:05:53.532Z,5.21
2019-03-09T20:08:19.484Z,5.19
2019-03-09T20:10:45.624Z,5.12
2019-03-09T20:13:11.644Z,5.03
2019-03-09T20:15:38.879Z,5.00
2019-03-09T20:18:04.839Z,4.98
2019-03-09T20:20:30.975Z,4.93
2019-03-09T20:22:56.935Z,4.88
2019-03-09T20:25:22.953Z,4.84
2019-03-09T20:27:48.986Z,4.80
2019-03-09T20:30:16.553Z,4.77
2019-03-09T20:32:42.613Z,4.76
2019-03-09T20:35:08.634Z,4.74
2019-03-09T20:37:34.701Z,4.70
2019-03-09T20:40:00.792Z,4.69
2019-03-09T20:42:26.979Z,4.68
2019-03-09T20:44:52.929Z,4.67
2019-03-09T20:47:18.909Z,4.69
2019-03-09T20:49:46.983Z,4.69
2019-03-09T20:52:13.164Z,4.71
2019-03-09T20:54:39.134Z,4.75
2019-03-09T20:57:05.218Z,4.77
2019-03-09T20:59:31.247Z,4.77
2019-03-09T21:01:57.222Z,4.75
2019-03-09T21:04:23.392Z,4.75
2019-03-09T21:06:49.325Z,4.78
2019-03-09T21:09:18.522Z,4.80
2019-03-09T21:11:44.582Z,4.87
2019-03-09T21:14:10.868Z,4.86
2019-03-09T21:16:36.839Z,4.93
2019-03-09T21:19:02.753Z,5.01
2019-03-09T21:21:28.964Z,5.04
2019-03-09T21:23:55.111Z,5.04
2019-03-09T21:26:21.180Z,5.02
2019-03-09T21:28:47.133Z,5.03
2019-03-09T21:31:13.209Z,5.01
2019-03-09T21:33:39.561Z,5.01
2019-03-09T21:36:05.500Z,5.04
2019-03-09T21:38:31.446Z,4.93
2019-03-09T21:40:57.361Z,4.88
2019-03-09T21:43:23.344Z,4.85
2019-03-09T21:45:49.371Z,4.84
2019-03-09T21:48:15.523Z,4.86
2019-03-09T21:50:41.600Z,4.87
2019-03-09T21:53:07.627Z,4.86
2019-03-09T21:55:33.564Z,4.80
2019-03-09T21:57:59.591Z,4.82
2019-03-09T22:00:25.558Z,4.87
2019-03-09T22:02:51.571Z,4.88
2019-03-09T22:05:21.898Z,4.87
2019-03-09T22:07:49.623Z,4.93
2019-03-09T22:10:17.953Z,4.94
2019-03-09T22:12:44.013Z,4.95
2019-03-09T22:15:19.337Z,4.92
2019-03-09T22:17:45.348Z,4.90
2019-03-09T22:20:12.293Z,4.91
2019-03-09T22:22:38.232Z,4.93
2019-03-09T22:25:07.278Z,4.98
2019-03-09T22:27:33.341Z,4.92
2019-03-09T22:29:59.544Z,4.90
2019-03-09T22:32:25.627Z,4.87
2019-03-09T22:34:51.554Z,4.91
2019-03-09T22:37:17.792Z,4.87
2019-03-09T22:39:44.096Z,5.06
2019-03-09T22:42:10.194Z,5.42
2019-03-09T22:44:36.371Z,5.64
2019-03-09T22:47:11.092Z,5.78
2019-03-09T22:49:30.401Z,5.90
2019-03-09T22:51:56.447Z,6.01
2019-03-09T22:54:22.457Z,6.15
2019-03-09T22:56:48.440Z,6.26
2019-03-09T22:59:14.622Z,6.38
2019-03-09T23:01:40.737Z,6.35
2019-03-09T23:04:06.921Z,6.33
2019-03-09T23:06:33.066Z,6.36
2019-03-09T23:08:59.221Z,6.37
2019-03-09T23:11:26.485Z,6.39
2019-03-09T23:13:52.680Z,6.43
2019-03-09T23:16:18.781Z,6.47
2019-03-09T23:18:45.058Z,6.50
2019-03-09T23:21:11.269Z,6.49
2019-03-09T23:23:37.223Z,6.50
2019-03-09T23:26:03.270Z,6.51
2019-03-09T23:29:04.670Z,6.44
2019-03-09T23:31:30.902Z,6.33
2019-03-09T23:33:56.834Z,6.38
2019-03-09T23:36:22.975Z,6.45
2019-03-09T23:38:49.140Z,6.46
2019-03-09T23:41:15.315Z,6.43
2019-03-09T23:43:41.287Z,6.48
2019-03-09T23:46:07.412Z,6.53
2019-03-09T23:48:33.628Z,6.55
2019-03-09T23:50:59.738Z,6.50
2019-03-09T23:53:27.051Z,6.49
2019-03-09T23:55:53.202Z,6.49
2019-03-09T23:58:19.273Z,6.39
